Etusivu
METAR-TAF:

METAR-TAF

Lentoasemat :

Odessa-Schlemeyer Field

Odessa, Texas, Yhdysvallat

Leveyspiiri: 31-55-17N, Pituuspiiri: 102-23-30W, korkeus merenpinnasta: 914 m

Tämänhetkinen sää

Tämä raportti tehtiin 40 minuuttia sitten, kello 01.53 UTC
Tuuli 4 kn lännestä/luoteesta
Lämpötila 16°C
Kosteus 31%
Ilmanpaine 1014 hPa
Näkyvyys: 9.7 km
selkeää
usvaa

METAR: KODO 190153Z AUTO 29004KT 6SM HZ CLR 16/M01 A2993 RMK AO2 SLP118 T01561006

Aika: 20:33 (02:33 UTC)


TAF: puuttuu

Säähavainnot ja -ennusteet yli 4000 lentoasemalta (METAR- ja TAF-raportit).

Käytössä olevat sääasemat on merkitty karttaan keltaisilla ja punaisilla pisteillä.

Aseta hiiri pisteen päälle nähdäksesi sääaseman nimen.

Klikkaa sitten nähdäksesi säähavainnot ja -ennusteet.

Kartan vaihtaminen: klikkaa mustalla rastilla varustettuja vihreitä pisteitä, niin voit zoomata sisään; viivalla varustettua vihreää pistettä, niin voit zoomata ulos tai vihreitä nuolia, niin pääset viereisille kartoille.


METAR-TAF: